Time;durP1;ratioP1;P1;durP2;ratioP2;P2;SDS_P1;SDS_P2;PMS_P1;PMS_P2;Temp;Humidity;BMP_temperature;BMP_pressure;BME280_temperature;BME280_humidity;BME280_pressure;Samples;Min_cycle;Max_cycle;Signal;HPM_P1;HPM_P2
2024/02/06 00:02:22;;;;;;;77.07;45.70;;;;;;;;;;4994605;28;20041;-73
2024/02/06 00:05:27;;;;;;;83.53;49.00;;;;;;;;;;4994356;28;20049;-73
2024/02/06 00:08:31;;;;;;;78.82;46.30;;;;;;;;;;4993486;28;20406;-72
2024/02/06 00:11:35;;;;;;;81.32;49.13;;;;;;;;;;4994275;28;20057;-72
2024/02/06 00:14:40;;;;;;;83.65;47.28;;;;;;;;;;4994090;28;20050;-73
2024/02/06 00:17:44;;;;;;;76.18;45.13;;;;;;;;;;4993375;28;20049;-72
2024/02/06 00:20:49;;;;;;;72.38;45.80;;;;;;;;;;4994010;28;20045;-72
2024/02/06 00:23:53;;;;;;;79.05;43.95;;;;;;;;;;4994371;28;20046;-73
2024/02/06 00:26:57;;;;;;;76.35;45.42;;;;;;;;;;4994792;28;20053;-72
2024/02/06 00:30:01;;;;;;;77.43;44.92;;;;;;;;;;4993110;28;20057;-72
2024/02/06 00:33:06;;;;;;;74.68;45.17;;;;;;;;;;4994104;28;20049;-72
2024/02/06 00:36:10;;;;;;;74.93;45.35;;;;;;;;;;4993538;28;20046;-73
2024/02/06 00:39:14;;;;;;;74.25;44.78;;;;;;;;;;4993890;28;20045;-73
2024/02/06 00:42:19;;;;;;;76.80;45.50;;;;;;;;;;4993820;28;20042;-72
2024/02/06 00:45:23;;;;;;;69.32;43.97;;;;;;;;;;4993654;28;20045;-73
2024/02/06 00:48:27;;;;;;;79.15;46.25;;;;;;;;;;4981574;28;20126;-72
2024/02/06 00:51:32;;;;;;;77.03;46.72;;;;;;;;;;4993585;28;20042;-72
2024/02/06 00:54:37;;;;;;;72.35;45.88;;;;;;;;;;4992411;28;20046;-73
2024/02/06 00:57:41;;;;;;;68.93;44.90;;;;;;;;;;4993387;28;20413;-73
2024/02/06 01:00:45;;;;;;;78.05;48.20;;;;;;;;;;4992765;28;20042;-73
2024/02/06 01:03:50;;;;;;;74.55;47.55;;;;;;;;;;4993576;28;20049;-72
2024/02/06 01:06:54;;;;;;;71.32;45.95;;;;;;;;;;4993156;28;20045;-73
2024/02/06 01:09:58;;;;;;;86.90;49.50;;;;;;;;;;4992366;28;20524;-72
2024/02/06 01:13:03;;;;;;;81.63;46.38;;;13.50;99.90;;;;;;4993039;28;20402;-72
2024/02/06 01:16:07;;;;;;;78.72;48.47;;;;;;;;;;4992765;28;20053;-73
2024/02/06 01:19:12;;;;;;;75.68;49.70;;;;;;;;;;4993156;28;20049;-72
2024/02/06 01:22:16;;;;;;;77.50;49.42;;;;;;;;;;4993190;28;20049;-72
2024/02/06 01:25:20;;;;;;;80.00;50.60;;;;;;;;;;4992071;28;20045;-72
2024/02/06 01:28:25;;;;;;;83.90;50.05;;;;;;;;;;4992696;28;20053;-72
2024/02/06 01:31:30;;;;;;;77.63;50.22;;;;;;;;;;4992803;28;20049;-72
2024/02/06 01:34:34;;;;;;;86.82;49.85;;;;;;;;;;4991827;28;20049;-72
2024/02/06 01:37:38;;;;;;;82.55;50.92;;;;;;;;;;4980867;28;20045;-72
2024/02/06 01:40:43;;;;;;;82.80;49.42;;;;;;;;;;4992676;28;20049;-72
2024/02/06 01:43:47;;;;;;;83.65;53.10;;;;;;;;;;4991885;28;20045;-72
2024/02/06 01:46:53;;;;;;;86.72;51.90;;;13.20;99.90;;;;;;4992226;28;20045;-72
2024/02/06 01:49:58;;;;;;;80.82;50.13;;;13.40;99.90;;;;;;4991966;28;20057;-72
2024/02/06 01:53:04;;;;;;;88.80;53.30;;;13.60;99.90;;;;;;4992277;28;20046;-72
2024/02/06 01:56:08;;;;;;;83.85;50.22;;;13.40;99.90;;;;;;4992371;28;20072;-72
2024/02/06 01:59:13;;;;;;;84.82;50.08;;;13.50;99.90;;;;;;4992587;28;20061;-73
2024/02/06 02:02:18;;;;;;;85.10;50.05;;;;;;;;;;4992016;28;20054;-72
2024/02/06 02:05:23;;;;;;;83.53;50.78;;;;;;;;;;4992130;28;20046;-72
2024/02/06 02:08:35;;;;;;;78.15;48.80;;;13.30;99.90;;;;;;4991994;28;20517;-73
2024/02/06 02:11:39;;;;;;;83.88;50.63;;;;;;;;;;4991029;28;20049;-73
2024/02/06 02:14:44;;;;;;;84.30;48.53;;;;;;;;;;4992105;28;20049;-72
2024/02/06 02:17:51;;;;;;;94.00;49.50;;;13.50;99.90;;;;;;4992249;28;20062;-72
2024/02/06 02:20:58;;;;;;;81.80;48.35;;;;;;;;;;4991221;28;20045;-72
2024/02/06 02:24:03;;;;;;;79.88;47.83;;;;;;;;;;4991233;28;20049;-72
2024/02/06 02:27:07;;;;;;;89.93;51.75;;;;;;;;;;4991790;28;20549;-72
2024/02/06 02:30:12;;;;;;;76.60;49.92;;;13.90;99.90;;;;;;4992062;28;20046;-72
2024/02/06 02:33:16;;;;;;;84.65;50.85;;;;;;;;;;4992004;28;20065;-72
2024/02/06 02:36:21;;;;;;;84.13;52.20;;;;;;;;;;4991879;28;20057;-72
2024/02/06 02:39:25;;;;;;;79.85;51.35;;;;;;;;;;4991938;28;20045;-72
2024/02/06 02:42:29;;;;;;;87.80;50.00;;;;;;;;;;4991720;28;20045;-73
2024/02/06 02:45:33;;;;;;;79.13;45.10;;;;;;;;;;4991889;28;20041;-71
2024/02/06 02:48:38;;;;;;;66.40;43.47;;;;;;;;;;4990530;28;20411;-72
2024/02/06 02:51:42;;;;;;;80.85;42.17;;;;;;;;;;4990953;28;20049;-72
2024/02/06 02:54:46;;;;;;;66.25;41.28;;;;;;;;;;4991567;28;20050;-72
2024/02/06 02:57:50;;;;;;;55.08;34.45;;;;;;;;;;4991698;28;20041;-72
2024/02/06 03:00:55;;;;;;;52.92;31.65;;;;;;;;;;4991566;28;20061;-72
2024/02/06 03:03:59;;;;;;;57.45;33.65;;;;;;;;;;4991485;28;20103;-72
2024/02/06 03:07:04;;;;;;;63.83;37.25;;;;;;;;;;4979166;28;20525;-72
2024/02/06 03:10:09;;;;;;;59.85;34.30;;;;;;;;;;4991717;28;20394;-72
2024/02/06 03:13:14;;;;;;;64.00;34.90;;;;;;;;;;4990732;28;20049;-72
2024/02/06 03:16:19;;;;;;;58.00;34.20;;;;;;;;;;4991118;28;20065;-72
2024/02/06 03:19:23;;;;;;;53.97;31.90;;;;;;;;;;4991443;28;20041;-72
2024/02/06 03:22:32;;;;;;;65.03;35.67;;;13.20;99.90;;;;;;4991395;28;20041;-72
2024/02/06 03:25:36;;;;;;;53.15;34.67;;;;;;;;;;4994791;28;20045;-72
2024/02/06 03:28:41;;;;;;;61.90;37.17;;;;;;;;;;4994042;28;20517;-72
2024/02/06 03:31:45;;;;;;;67.60;36.97;;;;;;;;;;4995302;28;20394;-72
2024/02/06 03:34:49;;;;;;;65.65;38.25;;;;;;;;;;4994170;28;20057;-72
2024/02/06 03:37:53;;;;;;;64.25;39.60;;;;;;;;;;4995713;28;20038;-71
2024/02/06 03:40:58;;;;;;;61.83;39.67;;;;;;;;;;4994748;28;20041;-71
2024/02/06 03:44:02;;;;;;;74.05;40.90;;;;;;;;;;4994678;28;20054;-71
2024/02/06 03:47:07;;;;;;;61.63;38.10;;;;;;;;;;4994069;28;20045;-71
2024/02/06 03:50:11;;;;;;;59.72;38.80;;;;;;;;;;4993968;28;20053;-71
2024/02/06 03:53:15;;;;;;;66.38;39.92;;;;;;;;;;4994814;28;20387;-71
2024/02/06 03:56:20;;;;;;;61.38;39.40;;;;;;;;;;4994547;28;20046;-72
2024/02/06 03:59:24;;;;;;;70.82;43.00;;;;;;;;;;4993866;28;20053;-72
2024/02/06 04:02:28;;;;;;;66.75;43.95;;;;;;;;;;4995512;28;20049;-72
2024/02/06 04:05:33;;;;;;;71.78;43.58;;;;;;;;;;4993419;28;20049;-72
2024/02/06 04:08:37;;;;;;;75.93;45.38;;;;;;;;;;4994493;28;20638;-72
2024/02/06 04:11:42;;;;;;;70.00;41.83;;;;;;;;;;4994447;28;20042;-72
2024/02/06 04:14:46;;;;;;;72.13;45.63;;;;;;;;;;4994240;28;20045;-72
2024/02/06 04:17:51;;;;;;;70.38;44.67;;;;;;;;;;4994033;28;20049;-72
2024/02/06 04:20:55;;;;;;;80.18;46.42;;;;;;;;;;4993967;28;20045;-72
2024/02/06 04:24:00;;;;;;;76.65;45.95;;;13.10;99.90;;;;;;4993281;28;20050;-72
2024/02/06 04:27:05;;;;;;;76.25;44.25;;;;;;;;;;4994002;28;20398;-72
2024/02/06 04:30:10;;;;;;;74.78;45.45;;;;;;;;;;4992923;28;20065;-72
2024/02/06 04:33:14;;;;;;;74.45;44.63;;;;;;;;;;4992979;28;20103;-72
2024/02/06 04:36:18;;;;;;;65.43;43.05;;;;;;;;;;4993093;28;20046;-73
2024/02/06 04:39:23;;;;;;;75.13;47.22;;;;;;;;;;4993586;28;20046;-73
2024/02/06 04:42:27;;;;;;;77.13;45.33;;;;;;;;;;4993084;28;20046;-73
2024/02/06 04:45:33;;;;;;;77.95;45.72;;;;;;;;;;4993670;28;20049;-73
2024/02/06 04:48:37;;;;;;;71.28;45.22;;;;;;;;;;4993600;28;20053;-73
2024/02/06 04:51:42;;;;;;;73.30;45.03;;;;;;;;;;4981615;28;20394;-73
2024/02/06 04:54:46;;;;;;;80.47;46.60;;;;;;;;;;4993221;28;20072;-73
2024/02/06 04:57:50;;;;;;;74.80;44.65;;;;;;;;;;4993376;28;20042;-73
2024/02/06 05:00:54;;;;;;;79.25;44.33;;;;;;;;;;4992683;28;20045;-73
2024/02/06 05:03:59;;;;;;;80.00;46.15;;;;;;;;;;4992847;28;20049;-73
2024/02/06 05:07:03;;;;;;;71.10;43.65;;;;;;;;;;4993106;28;20041;-73
2024/02/06 05:10:11;;;;;;;73.72;45.70;;;;;;;;;;4993356;28;20509;-73
2024/02/06 05:13:15;;;;;;;78.65;46.28;;;;;;;;;;4993373;28;20057;-73
2024/02/06 05:16:19;;;;;;;73.88;44.75;;;;;;;;;;4992025;28;20061;-73
2024/02/06 05:19:23;;;;;;;72.15;44.00;;;;;;;;;;4993258;28;20041;-73
2024/02/06 05:22:27;;;;;;;74.38;43.63;;;;;;;;;;4992819;28;20045;-73
2024/02/06 05:25:32;;;;;;;74.90;43.08;;;;;;;;;;4992554;28;20041;-73
2024/02/06 05:28:36;;;;;;;69.05;41.03;;;;;;;;;;4992876;28;20057;-73
2024/02/06 05:31:40;;;;;;;72.78;41.70;;;;;;;;;;4992567;28;20049;-73
2024/02/06 05:34:44;;;;;;;73.70;42.05;;;;;;;;;;4991954;28;20045;-72
2024/02/06 05:37:49;;;;;;;64.32;41.17;;;;;;;;;;4992900;28;20045;-73
2024/02/06 05:40:53;;;;;;;69.05;40.50;;;;;;;;;;4992466;28;20045;-73
2024/02/06 05:43:58;;;;;;;67.03;40.72;;;;;;;;;;4992533;28;20493;-73
2024/02/06 05:47:02;;;;;;;70.50;41.05;;;;;;;;;;4992013;28;20045;-73
2024/02/06 05:50:09;;;;;;;72.15;41.50;;;;;;;;;;4992411;28;20057;-73
2024/02/06 05:53:13;;;;;;;71.63;42.10;;;;;;;;;;4992254;28;20045;-73
2024/02/06 05:56:18;;;;;;;69.28;41.83;;;;;;;;;;4992430;28;20068;-73
2024/02/06 05:59:24;;;;;;;63.35;39.58;;;;;;;;;;4992629;28;20046;-72
2024/02/06 06:02:29;;;;;;;78.07;43.35;;;;;;;;;;4992357;28;20545;-72
2024/02/06 06:05:33;;;;;;;68.00;42.08;;;;;;;;;;4992506;28;20490;-72
2024/02/06 06:08:38;;;;;;;73.97;44.53;;;;;;;;;;4991944;28;20053;-72
2024/02/06 06:11:42;;;;;;;74.35;44.22;;;;;;;;;;4992357;28;20049;-72
2024/02/06 06:14:47;;;;;;;67.20;42.10;;;;;;;;;;4992152;28;20525;-72
2024/02/06 06:17:51;;;;;;;79.43;46.30;;;;;;;;;;4992117;28;20065;-72
2024/02/06 06:20:55;;;;;;;80.05;42.97;;;;;;;;;;4992162;28;20041;-71
2024/02/06 06:24:00;;;;;;;70.00;41.75;;;;;;;;;;4992036;28;20533;-71
2024/02/06 06:27:04;;;;;;;70.30;40.35;;;;;;;;;;4991989;28;20049;-71
2024/02/06 06:30:10;;;;;;;69.50;41.13;;;12.00;99.90;;;;;;4968928;28;20049;-71
2024/02/06 06:33:14;;;;;;;76.20;41.05;;;;;;;;;;4991859;28;20598;-71
2024/02/06 06:36:18;;;;;;;80.97;40.92;;;;;;;;;;4991558;28;20701;-71
2024/02/06 06:39:23;;;;;;;75.97;39.95;;;;;;;;;;4991668;28;20042;-70
2024/02/06 06:42:27;;;;;;;78.03;40.40;;;;;;;;;;4991700;28;20521;-72
2024/02/06 06:45:32;;;;;;;68.65;37.15;;;;;;;;;;4991534;28;20049;-72
2024/02/06 06:48:37;;;;;;;74.32;36.83;;;;;;;;;;4991612;28;20053;-72
2024/02/06 06:51:42;;;;;;;70.05;36.15;;;12.30;99.90;;;;;;4990633;28;20347;-72
2024/02/06 06:54:47;;;;;;;66.60;32.47;;;;;;;;;;4991421;28;20049;-72
2024/02/06 06:57:51;;;;;;;69.72;35.28;;;;;;;;;;4991595;28;20037;-73
2024/02/06 07:00:56;;;;;;;78.72;35.10;;;;;;;;;;4994365;28;20049;-72
2024/02/06 07:04:00;;;;;;;55.10;30.80;;;;;;;;;;4994630;28;20042;-71
2024/02/06 07:07:05;;;;;;;54.50;29.52;;;;;;;;;;4995642;28;20047;-71
2024/02/06 07:10:10;;;;;;;65.22;31.08;;;;;;;;;;4994676;28;20057;-72
2024/02/06 07:13:14;;;;;;;55.17;30.75;;;;;;;;;;4995335;28;20398;-72
2024/02/06 07:16:19;;;;;;;70.65;31.45;;;12.70;99.90;;;;;;4994947;28;20065;-72
2024/02/06 07:19:23;;;;;;;73.15;34.25;;;;;;;;;;4983248;28;20054;-72
2024/02/06 07:22:31;;;;;;;65.93;33.88;;;;;;;;;;4995205;28;20049;-72
2024/02/06 07:25:36;;;;;;;52.60;30.15;;;;;;;;;;4994595;28;20045;-72
2024/02/06 07:28:40;;;;;;;59.33;30.85;;;;;;;;;;4993728;28;20061;-72
2024/02/06 07:31:45;;;;;;;50.95;30.77;;;;;;;;;;4994846;28;20041;-72
2024/02/06 07:34:49;;;;;;;65.95;29.80;;;;;;;;;;4993800;28;20061;-74
2024/02/06 07:37:53;;;;;;;50.80;27.10;;;;;;;;;;4995027;28;20054;-74
2024/02/06 07:40:58;;;;;;;57.80;29.88;;;;;;;;;;4994877;28;20049;-74
2024/02/06 07:44:03;;;;;;;62.40;30.52;;;;;;;;;;4993581;28;20053;-75
2024/02/06 07:47:07;;;;;;;53.20;28.38;;;;;;;;;;4994008;28;20509;-74
2024/02/06 07:50:11;;;;;;;33.85;23.52;;;;;;;;;;4994620;28;20057;-74
2024/02/06 07:53:16;;;;;;;39.90;21.27;;;;;;;;;;4982332;28;20509;-73
2024/02/06 07:56:20;;;;;;;34.70;21.55;;;;;;;;;;4993909;28;20054;-72
2024/02/06 07:59:24;;;;;;;42.92;23.75;;;;;;;;;;4993600;28;20053;-71
2024/02/06 08:02:28;;;;;;;50.40;26.85;;;;;;;;;;4993622;28;20045;-73
2024/02/06 08:05:33;;;;;;;40.08;22.42;;;;;;;;;;4993360;28;20041;-72
2024/02/06 08:08:38;;;;;;;40.17;22.90;;;;;;;;;;4993898;28;20548;-71
2024/02/06 08:11:42;;;;;;;39.42;22.33;;;;;;;;;;4993860;28;20053;-71
2024/02/06 08:14:47;;;;;;;47.15;21.80;;;;;;;;;;4994237;28;20149;-71
2024/02/06 08:17:52;;;;;;;43.90;21.45;;;;;;;;;;4994093;28;20061;-72
2024/02/06 08:20:56;;;;;;;46.45;22.50;;;;;;;;;;4994227;28;20370;-72
2024/02/06 08:24:00;;;;;;;39.67;20.88;;;;;;;;;;4993327;28;20045;-72
2024/02/06 08:27:05;;;;;;;39.65;18.85;;;;;;;;;;4994265;28;20398;-76
2024/02/06 08:30:10;;;;;;;39.28;20.30;;;;;;;;;;4996394;28;20069;-76
2024/02/06 08:33:14;;;;;;;41.17;21.65;;;16.80;99.90;;;;;;4997131;28;20053;-73
2024/02/06 08:36:18;;;;;;;31.42;20.05;;;;;;;;;;4993211;28;20041;-76
2024/02/06 08:39:26;;;;;;;32.13;19.58;;;;;;;;;;4994071;28;20065;-75
2024/02/06 08:42:31;;;;;;;33.33;15.10;;;;;;;;;;4993936;28;20042;-74
2024/02/06 08:45:35;;;;;;;23.98;11.00;;;;;;;;;;4993544;28;20065;-75
2024/02/06 08:48:40;;;;;;;35.10;11.85;;;;;;;;;;4993768;28;20065;-79
2024/02/06 08:51:44;;;;;;;19.35;7.28;;;;;;;;;;4993809;28;20125;-74
2024/02/06 08:54:48;;;;;;;14.88;5.68;;;;;;;;;;4993330;28;20045;-73
2024/02/06 08:57:53;;;;;;;18.63;6.45;;;;;;;;;;4993682;28;20034;-73
2024/02/06 09:00:57;;;;;;;28.92;7.57;;;;;;;;;;4992615;28;20045;-75
2024/02/06 09:04:04;;;;;;;18.15;7.70;;;;;;;;;;4981555;28;20042;-74
2024/02/06 09:07:08;;;;;;;20.38;7.47;;;;;;;;;;4993212;28;20053;-74
2024/02/06 09:10:13;;;;;;;14.18;5.78;;;;;;;;;;4992961;28;20055;-72
2024/02/06 09:13:17;;;;;;;15.63;5.50;;;;;;;;;;4992974;28;20030;-73
2024/02/06 09:16:22;;;;;;;15.18;5.85;;;;;;;;;;4992794;28;20054;-76
2024/02/06 09:19:26;;;;;;;14.45;4.97;;;;;;;;;;4993182;28;20494;-74
2024/02/06 09:22:31;;;;;;;16.80;5.57;;;;;;;;;;4992705;28;20462;-74
2024/02/06 09:25:35;;;;;;;15.65;5.80;;;;;;;;;;4993103;28;20041;-78
2024/02/06 09:28:39;;;;;;;16.25;5.47;;;;;;;;;;4992895;28;20047;-79
2024/02/06 09:31:43;;;;;;;18.38;6.15;;;;;;;;;;4993057;28;20038;-77
2024/02/06 09:34:48;;;;;;;18.92;5.15;;;;;;;;;;4992815;28;20041;-77
2024/02/06 09:37:53;;;;;;;22.13;5.63;;;;;;;;;;4991840;28;20049;-78
2024/02/06 09:40:57;;;;;;;18.23;5.40;;;;;;;;;;4992765;28;20531;-78
2024/02/06 09:44:01;;;;;;;23.45;5.97;;;;;;;;;;4992564;28;20054;-73
2024/02/06 09:47:05;;;;;;;11.13;4.55;;;;;;;;;;4992479;28;20034;-73
2024/02/06 09:50:10;;;;;;;17.58;4.82;;;;;;;;;;4993506;28;20509;-72
2024/02/06 09:53:15;;;;;;;24.15;5.03;;;;;;;;;;4992264;28;20041;-81
2024/02/06 09:56:20;;;;;;;17.73;5.75;;;;;;;;;;4992157;28;20038;-73
2024/02/06 09:59:25;;;;;;;18.67;5.70;;;;;;;;;;4991346;28;20501;-73
2024/02/06 10:02:30;;;;;;;18.88;4.75;;;;;;;;;;4992235;28;20506;-79
2024/02/06 10:05:40;;;;;;;18.48;4.97;;;19.40;95.40;;;;;;4992972;28;20050;-74
2024/02/06 10:08:48;;;;;;;17.13;5.35;;;19.50;95.50;;;;;;4991217;28;20057;-77
2024/02/06 10:11:54;;;;;;;21.70;8.30;;;19.70;95.40;;;;;;4991279;28;20046;-77
2024/02/06 10:14:59;;;;;;;16.77;4.85;;;;;;;;;;4990864;28;20045;-75
2024/02/06 10:18:04;;;;;;;17.10;5.32;;;;;;;;;;4991925;28;20046;-75
2024/02/06 10:21:08;;;;;;;18.90;5.28;;;;;;;;;;4991987;28;20049;-74
2024/02/06 10:24:12;;;;;;;13.05;4.45;;;;;;;;;;4990787;28;20037;-79
2024/02/06 10:27:18;;;;;;;23.33;4.70;;;;;;;;;;4991213;28;20045;-86
2024/02/06 10:30:23;;;;;;;16.65;4.80;;;;;;;;;;4979408;28;20049;-79
2024/02/06 10:33:27;;;;;;;16.63;4.32;;;;;;;;;;4991166;28;20043;-79
2024/02/06 10:36:32;;;;;;;16.17;4.50;;;;;;;;;;4968255;28;20038;-73
2024/02/06 10:39:37;;;;;;;16.08;4.80;;;;;;;;;;4991311;28;20041;-71
2024/02/06 10:42:41;;;;;;;13.48;4.65;;;;;;;;;;4990753;28;20038;-73
2024/02/06 10:45:59;;;;;;;20.90;7.32;;;20.90;93.10;;;;;;4991627;28;20042;-71
2024/02/06 10:49:04;;;;;;;17.80;4.05;;;;;;;;;;4991469;28;20058;-73
2024/02/06 10:52:09;;;;;;;14.65;4.03;;;;;;;;;;4990802;28;20038;-71
2024/02/06 10:55:13;;;;;;;18.55;5.30;;;;;;;;;;4991427;28;20053;-71
2024/02/06 10:58:21;;;;;;;22.52;4.72;;;19.70;93.00;;;;;;4979624;28;20045;-71
2024/02/06 11:01:30;;;;;;;16.63;4.40;;;;;;;;;;4991511;28;20502;-72
2024/02/06 11:04:36;;;;;;;18.23;4.28;;;;;;;;;;4991402;28;20073;-73
2024/02/06 11:07:55;;;;;;;18.42;5.00;;;21.20;93.40;;;;;;4991070;28;20051;-73
2024/02/06 11:11:02;;;;;;;14.93;3.88;;;21.40;93.20;;;;;;4991268;28;20061;-76
2024/02/06 11:14:10;;;;;;;17.85;3.83;;;19.00;92.10;;;;;;4990381;28;20049;-74
2024/02/06 11:17:15;;;;;;;11.70;4.38;;;;;;;;;;4978881;28;20578;-74
2024/02/06 11:20:24;;;;;;;17.52;4.47;;;20.30;93.00;;;;;;4991117;28;20057;-72
2024/02/06 11:23:30;;;;;;;15.45;3.95;;;19.90;93.20;;;;;;4991164;28;20446;-76
2024/02/06 11:26:34;;;;;;;20.38;4.15;;;;;;;;;;4991277;28;20046;-73
2024/02/06 11:29:38;;;;;;;22.35;4.65;;;;;;;;;;4991178;28;20066;-75
2024/02/06 11:32:44;;;;;;;13.48;4.43;;;;;;;;;;4991176;28;20053;-73
2024/02/06 11:35:47;;;;;;;12.20;3.90;;;;;;;;;;4990393;28;20053;-74
2024/02/06 11:38:53;;;;;;;19.42;4.18;;;;;;;;;;4989163;28;20398;-74
2024/02/06 11:42:01;;;;;;;14.88;4.35;;;;;;;;;;4990425;28;20042;-76
2024/02/06 11:45:05;;;;;;;15.80;4.43;;;;;;;;;;4993519;28;20038;-75
2024/02/06 11:48:11;;;;;;;22.10;5.05;;;;;;;;;;4994558;28;20513;-73
2024/02/06 11:51:27;;;;;;;11.05;4.05;;;19.90;94.30;;;;;;4994795;28;20046;-72
2024/02/06 11:54:31;;;;;;;13.02;4.50;;;;;;;;;;4993540;28;20045;-74
2024/02/06 11:57:37;;;;;;;16.75;4.32;;;17.40;93.70;;;;;;4994535;28;20034;-73
2024/02/06 12:00:41;;;;;;;9.40;4.03;;;;;;;;;;4994388;28;20046;-74
2024/02/06 12:03:54;;;;;;;17.75;4.38;;;;;;;;;;4993307;28;20042;-74
2024/02/06 12:07:05;;;;;;;22.50;4.63;;;;;;;;;;4993699;28;20038;-73
2024/02/06 12:10:09;;;;;;;10.02;3.50;;;;;;;;;;4993540;28;20050;-74
2024/02/06 12:13:13;;;;;;;12.25;3.95;;;;;;;;;;4994363;28;20365;-74
2024/02/06 12:16:18;;;;;;;13.70;4.43;;;19.80;94.80;;;;;;4992984;28;20050;-74
2024/02/06 12:19:26;;;;;;;17.48;4.00;;;18.80;94.70;;;;;;4994405;28;20051;-75
2024/02/06 12:22:30;;;;;;;17.33;5.10;;;;;;;;;;4994372;28;20398;-73
2024/02/06 12:25:36;;;;;;;13.40;4.18;;;;;;;;;;4994139;28;20428;-74
2024/02/06 12:28:42;;;;;;;15.23;4.63;;;;;;;;;;4993863;28;20395;-74
2024/02/06 12:31:46;;;;;;;18.23;3.88;;;;;;;;;;4993964;28;20053;-74
2024/02/06 12:34:52;;;;;;;13.98;4.10;;;19.10;94.70;;;;;;4993795;28;20046;-74
2024/02/06 12:37:57;;;;;;;11.32;4.28;;;;;;;;;;4993265;28;20049;-74
2024/02/06 12:41:03;;;;;;;20.33;4.13;;;;;;;;;;4993634;28;20046;-74
2024/02/06 12:44:07;;;;;;;16.52;4.28;;;;;;;;;;4992681;28;20034;-74
2024/02/06 12:47:11;;;;;;;16.25;5.40;;;;;;;;;;4992829;28;20042;-74
2024/02/06 12:50:16;;;;;;;21.42;5.85;;;;;;;;;;4993346;28;20054;-73
2024/02/06 12:53:24;;;;;;;15.93;4.47;;;;;;;;;;4992620;28;20050;-74
2024/02/06 12:56:28;;;;;;;22.90;5.32;;;;;;;;;;4992660;28;20050;-74
2024/02/06 12:59:32;;;;;;;16.83;4.20;;;;;;;;;;4981639;28;20668;-74
2024/02/06 13:02:37;;;;;;;16.85;4.10;;;;;;;;;;4993584;28;20049;-74
2024/02/06 13:05:44;;;;;;;15.80;4.07;;;;;;;;;;4993201;28;20042;-73
2024/02/06 13:08:51;;;;;;;13.30;4.45;;;;;;;;;;4993243;28;20050;-76
2024/02/06 13:11:55;;;;;;;21.98;4.10;;;;;;;;;;4992582;28;20049;-77
2024/02/06 13:15:03;;;;;;;19.30;3.67;;;;;;;;;;4980991;28;20055;-74
2024/02/06 13:18:07;;;;;;;13.85;4.30;;;;;;;;;;4992383;28;20071;-76
2024/02/06 13:21:11;;;;;;;11.98;3.85;;;;;;;;;;4992223;28;20038;-76
2024/02/06 13:24:16;;;;;;;15.48;4.38;;;;;;;;;;4992036;28;20046;-77
2024/02/06 13:27:21;;;;;;;16.50;4.25;;;;;;;;;;4993008;28;20046;-73
2024/02/06 13:30:25;;;;;;;12.15;3.85;;;;;;;;;;4992629;28;20148;-73
2024/02/06 13:33:31;;;;;;;17.48;5.07;;;;;;;;;;4992950;28;20074;-74
2024/02/06 13:36:35;;;;;;;18.45;3.50;;;;;;;;;;4992217;28;20055;-77
2024/02/06 13:39:40;;;;;;;17.67;4.28;;;;;;;;;;4991753;28;20034;-72
2024/02/06 13:42:44;;;;;;;17.20;4.50;;;;;;;;;;4991676;28;20055;-74
2024/02/06 13:45:50;;;;;;;15.23;4.35;;;;;;;;;;4991735;28;20644;-77
2024/02/06 13:48:54;;;;;;;15.88;5.32;;;;;;;;;;4992580;28;20050;-75
2024/02/06 13:51:59;;;;;;;17.27;4.07;;;;;;;;;;4992782;28;20053;-78
2024/02/06 13:55:04;;;;;;;18.70;4.47;;;;;;;;;;4991430;28;20031;-75
2024/02/06 13:58:09;;;;;;;20.67;4.13;;;;;;;;;;4992148;28;20038;-76
2024/02/06 14:01:13;;;;;;;13.82;3.95;;;;;;;;;;4992955;28;20043;-76
2024/02/06 14:04:17;;;;;;;13.45;3.90;;;;;;;;;;4993009;28;20042;-72
2024/02/06 14:07:23;;;;;;;16.92;4.20;;;;;;;;;;4980289;28;20062;-73
2024/02/06 14:10:27;;;;;;;13.35;3.85;;;;;;;;;;4991134;28;20213;-74
2024/02/06 14:13:31;;;;;;;9.93;3.90;;;;;;;;;;4991637;28;20034;-73
2024/02/06 14:16:36;;;;;;;21.88;4.90;;;;;;;;;;4991351;28;20054;-74
2024/02/06 14:19:40;;;;;;;21.15;3.97;;;;;;;;;;4991773;28;20049;-80
2024/02/06 14:22:46;;;;;;;20.50;4.93;;;20.70;98.00;;;;;;4990845;28;20049;-79
2024/02/06 14:25:51;;;;;;;19.67;4.32;;;;;;;;;;4992158;28;20049;-74
2024/02/06 14:28:55;;;;;;;17.92;7.00;;;;;;;;;;4991735;28;20044;-77
2024/02/06 14:31:59;;;;;;;19.48;4.80;;;;;;;;;;4991790;28;20038;-73
2024/02/06 14:35:04;;;;;;;12.93;3.70;;;;;;;;;;4991610;28;20042;-72
2024/02/06 14:38:12;;;;;;;18.85;4.10;;;;;;;;;;4991052;28;20046;-76
2024/02/06 14:41:17;;;;;;;18.35;4.30;;;;;;;;;;4991731;28;20069;-73
2024/02/06 14:44:21;;;;;;;20.23;4.20;;;;;;;;;;4990857;28;20474;-73
2024/02/06 14:47:25;;;;;;;18.05;4.72;;;;;;;;;;4991651;28;20061;-73
2024/02/06 14:50:30;;;;;;;15.93;4.43;;;;;;;;;;4991348;28;20058;-77
2024/02/06 14:53:35;;;;;;;14.80;4.13;;;;;;;;;;4990766;28;20042;-75
2024/02/06 14:56:46;;;;;;;22.48;4.78;;;16.90;98.60;;;;;;4979781;28;20046;-75
2024/02/06 14:59:50;;;;;;;19.98;4.50;;;;;;;;;;4990854;28;20505;-75
2024/02/06 15:02:56;;;;;;;16.00;4.10;;;;;;;;;;4991465;28;20058;-74
2024/02/06 15:06:00;;;;;;;16.50;5.13;;;;;;;;;;4991306;28;20121;-77
2024/02/06 15:09:08;;;;;;;20.30;5.18;;;;;;;;;;4991246;28;20045;-74
2024/02/06 15:12:13;;;;;;;16.70;5.45;;;;;;;;;;4979495;28;20509;-77
2024/02/06 15:15:17;;;;;;;17.35;4.88;;;;;;;;;;4990299;28;20047;-78
2024/02/06 15:18:21;;;;;;;16.70;4.32;;;;;;;;;;4990393;28;20045;-73
2024/02/06 15:21:26;;;;;;;16.50;4.30;;;;;;;;;;4995247;28;20046;-73
2024/02/06 15:24:30;;;;;;;19.15;4.97;;;;;;;;;;4995370;28;20483;-75
2024/02/06 15:27:35;;;;;;;20.60;4.20;;;16.80;98.80;;;;;;4994419;28;20209;-77
2024/02/06 15:30:39;;;;;;;17.50;5.18;;;;;;;;;;4982806;28;20050;-76
2024/02/06 15:33:43;;;;;;;17.45;4.22;;;;;;;;;;4995022;28;20077;-76
2024/02/06 15:36:48;;;;;;;19.65;5.10;;;14.90;98.60;;;;;;4994362;28;20045;-74
2024/02/06 15:39:52;;;;;;;28.60;5.38;;;;;;;;;;4971837;28;20045;-74
2024/02/06 15:42:57;;;;;;;16.83;4.00;;;;;;;;;;4994928;28;20490;-76
2024/02/06 15:46:03;;;;;;;23.73;5.28;;;;;;;;;;4994720;28;20043;-76
2024/02/06 15:49:07;;;;;;;20.15;4.28;;;;;;;;;;4982987;28;20402;-80
2024/02/06 15:52:12;;;;;;;15.70;3.80;;;;;;;;;;4994786;28;20038;-75
2024/02/06 15:55:16;;;;;;;21.08;5.05;;;;;;;;;;4994721;28;20046;-75
2024/02/06 15:58:21;;;;;;;16.85;5.07;;;;;;;;;;4994509;28;20482;-74
2024/02/06 16:01:25;;;;;;;18.70;5.00;;;;;;;;;;4993765;28;20043;-76
2024/02/06 16:04:30;;;;;;;23.33;5.60;;;18.40;99.90;;;;;;4993249;28;20053;-73
2024/02/06 16:07:35;;;;;;;17.10;5.72;;;16.10;99.90;;;;;;4993543;28;20045;-75
2024/02/06 16:10:41;;;;;;;24.33;5.25;;;14.80;99.80;;;;;;4993784;28;20065;-76
2024/02/06 16:13:45;;;;;;;30.95;7.65;;;;;;;;;;4994247;28;20413;-78
2024/02/06 16:16:50;;;;;;;22.55;6.10;;;;;;;;;;4993974;28;20065;-77
2024/02/06 16:19:54;;;;;;;18.23;5.32;;;;;;;;;;4994036;28;20037;-75
2024/02/06 16:22:58;;;;;;;25.33;6.43;;;;;;;;;;4994073;28;20038;-73
2024/02/06 16:26:03;;;;;;;24.48;6.50;;;;;;;;;;4994073;28;20490;-76
2024/02/06 16:29:07;;;;;;;29.77;7.20;;;;;;;;;;4993426;28;20047;-76
2024/02/06 16:32:12;;;;;;;25.30;6.40;;;;;;;;;;4992783;28;20038;-76
2024/02/06 16:35:17;;;;;;;25.90;7.22;;;;;;;;;;4992899;28;20057;-76
2024/02/06 16:38:21;;;;;;;24.13;7.28;;;;;;;;;;4992429;28;20398;-77
2024/02/06 16:41:29;;;;;;;24.95;8.13;;;15.70;99.90;;;;;;4981575;28;20030;-77
2024/02/06 16:44:34;;;;;;;24.10;6.63;;;;;;;;;;4993494;28;20050;-77
2024/02/06 16:47:38;;;;;;;28.25;7.63;;;;;;;;;;4993447;28;20489;-76
2024/02/06 16:50:42;;;;;;;34.83;9.57;;;;;;;;;;4992466;28;20410;-75
2024/02/06 16:53:47;;;;;;;26.85;8.63;;;;;;;;;;4993358;28;20053;-75
2024/02/06 16:56:51;;;;;;;27.05;7.20;;;;;;;;;;4993094;28;20047;-75
2024/02/06 16:59:55;;;;;;;37.90;13.32;;;;;;;;;;4993257;28;20034;-74
2024/02/06 17:03:00;;;;;;;37.20;12.75;;;;;;;;;;4992413;28;20049;-75
2024/02/06 17:06:05;;;;;;;36.65;13.75;;;;;;;;;;4993501;28;20050;-75
2024/02/06 17:09:10;;;;;;;32.33;10.43;;;;;;;;;;4992972;28;20057;-75
2024/02/06 17:12:15;;;;;;;25.40;10.10;;;;;;;;;;4993263;28;20434;-75
2024/02/06 17:15:21;;;;;;;30.95;9.88;;;16.80;99.90;;;;;;4992942;28;20049;-74
2024/02/06 17:18:27;;;;;;;35.28;10.55;;;;;;;;;;4993162;28;20069;-75
2024/02/06 17:21:31;;;;;;;18.88;9.38;;;;;;;;;;4992913;28;20537;-77
2024/02/06 17:24:38;;;;;;;33.03;9.43;;;;;;;;;;4993593;28;20148;-80
2024/02/06 17:27:42;;;;;;;21.38;9.40;;;;;;;;;;4992865;28;20034;-74
2024/02/06 17:30:47;;;;;;;27.48;10.55;;;;;;;;;;4991828;28;20057;-72
2024/02/06 17:33:51;;;;;;;25.70;9.68;;;16.00;99.90;;;;;;4992579;28;20037;-69
2024/02/06 17:36:56;;;;;;;37.83;12.05;;;;;;;;;;4991925;28;20057;-71
2024/02/06 17:40:00;;;;;;;33.15;10.40;;;;;;;;;;4991261;28;20501;-74
2024/02/06 17:43:06;;;;;;;31.55;11.00;;;;;;;;;;4992227;28;20057;-76
2024/02/06 17:46:11;;;;;;;30.05;11.75;;;;;;;;;;4992754;28;20438;-75